createdAt,value
2023-05-19T00:01:19.075Z,80.22
2023-05-19T00:03:53.651Z,78.65
2023-05-19T00:06:31.592Z,80.49
2023-05-19T00:09:05.786Z,79.69
2023-05-19T00:11:32.532Z,79.99
2023-05-19T00:14:00.062Z,80.29
2023-05-19T00:16:28.571Z,80.58
2023-05-19T00:18:57.057Z,79.29
2023-05-19T00:21:23.828Z,80.85
2023-05-19T00:23:50.537Z,81.00
2023-05-19T00:26:17.193Z,80.33
2023-05-19T00:28:43.660Z,81.05
2023-05-19T00:31:10.281Z,80.76
2023-05-19T00:33:36.840Z,81.02
2023-05-19T00:36:04.228Z,81.57
2023-05-19T00:38:31.709Z,81.92
2023-05-19T00:40:58.854Z,81.68
2023-05-19T00:43:26.025Z,81.42
2023-05-19T00:45:52.638Z,82.01
2023-05-19T00:48:19.249Z,81.33
2023-05-19T00:50:46.106Z,81.91
2023-05-19T00:53:14.723Z,82.14
2023-05-19T00:55:42.697Z,81.70
2023-05-19T00:58:11.736Z,81.86
2023-05-19T01:00:39.531Z,82.31
2023-05-19T01:03:12.942Z,83.11
2023-05-19T01:05:41.763Z,82.27
2023-05-19T01:08:08.913Z,82.03
2023-05-19T01:10:35.463Z,83.64
2023-05-19T01:13:04.405Z,83.28
2023-05-19T01:15:59.224Z,83.84
2023-05-19T01:18:56.910Z,82.69
2023-05-19T01:21:36.499Z,83.51
2023-05-19T01:24:28.087Z,82.62
2023-05-19T01:27:15.862Z,82.93
2023-05-19T01:29:59.346Z,84.56
2023-05-19T01:32:26.732Z,84.54
2023-05-19T01:34:55.512Z,85.11
2023-05-19T01:37:23.415Z,84.71
2023-05-19T01:39:50.560Z,84.35
2023-05-19T01:42:17.885Z,84.82
2023-05-19T01:44:44.550Z,84.12
2023-05-19T01:47:11.448Z,85.29
2023-05-19T01:49:37.936Z,84.96
2023-05-19T01:52:04.632Z,85.44
2023-05-19T01:54:31.159Z,86.13
2023-05-19T01:57:04.242Z,86.26
2023-05-19T01:59:36.489Z,86.46
2023-05-19T02:02:11.700Z,85.65
2023-05-19T02:04:46.585Z,86.79
2023-05-19T02:07:17.613Z,86.46
2023-05-19T02:09:56.106Z,86.32
2023-05-19T02:12:28.706Z,86.63
2023-05-19T02:15:04.315Z,86.34
2023-05-19T02:17:33.334Z,86.13
2023-05-19T02:19:59.934Z,86.65
2023-05-19T02:22:26.405Z,87.88
2023-05-19T02:24:52.893Z,86.58
2023-05-19T02:27:19.430Z,87.13
2023-05-19T02:29:46.005Z,87.23
2023-05-19T02:32:12.581Z,88.13
2023-05-19T02:34:39.198Z,87.39
2023-05-19T02:37:07.642Z,87.41
2023-05-19T02:39:35.255Z,88.52
2023-05-19T02:42:01.796Z,88.04
2023-05-19T02:44:28.298Z,88.00
2023-05-19T02:46:54.871Z,88.51
2023-05-19T02:49:21.433Z,88.30
2023-05-19T02:51:47.914Z,88.52
2023-05-19T02:54:14.370Z,88.74
2023-05-19T02:56:40.863Z,88.44
2023-05-19T02:59:07.346Z,88.49
2023-05-19T03:01:34.050Z,88.54
2023-05-19T03:04:00.725Z,88.42
2023-05-19T03:06:27.401Z,88.83
2023-05-19T03:08:53.866Z,89.62
2023-05-19T03:11:20.723Z,89.41
2023-05-19T03:13:47.220Z,88.54
2023-05-19T03:16:14.038Z,88.24
2023-05-19T03:18:41.774Z,88.89
2023-05-19T03:21:08.295Z,88.51
2023-05-19T03:23:34.804Z,89.26
2023-05-19T03:26:01.315Z,89.90
2023-05-19T03:28:27.795Z,89.56
2023-05-19T03:30:54.328Z,89.61
2023-05-19T03:33:21.096Z,89.65
2023-05-19T03:35:47.632Z,89.62
2023-05-19T03:38:14.130Z,89.88
2023-05-19T03:40:41.426Z,89.33
2023-05-19T03:43:07.971Z,89.41
2023-05-19T03:45:34.510Z,90.00
2023-05-19T03:48:01.172Z,90.46
2023-05-19T03:50:29.134Z,89.60
2023-05-19T03:52:55.692Z,89.91
2023-05-19T03:55:22.181Z,89.68
2023-05-19T03:57:48.865Z,90.26
2023-05-19T04:00:16.620Z,89.80
2023-05-19T04:02:43.179Z,90.13
2023-05-19T04:05:10.609Z,90.43
2023-05-19T04:07:37.137Z,91.22
2023-05-19T04:10:05.469Z,91.00
2023-05-19T04:12:32.101Z,90.20
2023-05-19T04:14:58.847Z,90.97
2023-05-19T04:17:26.480Z,90.83
2023-05-19T04:19:54.129Z,91.12
2023-05-19T04:22:20.917Z,91.02
2023-05-19T04:24:48.588Z,91.04
2023-05-19T04:27:16.083Z,91.45
2023-05-19T04:29:42.562Z,91.74
2023-05-19T04:32:09.261Z,91.33
2023-05-19T04:34:35.785Z,91.86
2023-05-19T04:37:02.726Z,90.61
2023-05-19T04:39:29.264Z,91.44
2023-05-19T04:41:56.621Z,91.34
2023-05-19T04:44:23.179Z,91.06
2023-05-19T04:46:50.139Z,91.54
2023-05-19T04:49:19.131Z,92.48
2023-05-19T04:51:46.144Z,92.25
2023-05-19T04:54:12.572Z,91.84
2023-05-19T04:56:39.079Z,91.40
2023-05-19T04:59:05.572Z,91.25
2023-05-19T05:01:33.688Z,91.73
2023-05-19T05:04:02.431Z,91.00
2023-05-19T05:06:29.089Z,90.86
2023-05-19T05:08:56.756Z,90.54
2023-05-19T05:11:23.425Z,91.68
2023-05-19T05:13:50.161Z,90.88
2023-05-19T05:16:17.040Z,90.77
2023-05-19T05:18:44.857Z,90.92
2023-05-19T05:21:12.192Z,90.89
2023-05-19T05:23:38.933Z,89.78
2023-05-19T05:26:11.113Z,89.31
2023-05-19T05:28:37.551Z,89.57
2023-05-19T05:31:04.132Z,89.77
2023-05-19T05:33:30.798Z,89.14
2023-05-19T05:35:57.338Z,89.36
2023-05-19T05:38:24.129Z,88.13
2023-05-19T05:40:50.616Z,87.84
2023-05-19T05:43:17.108Z,88.52
2023-05-19T05:45:43.675Z,88.06
2023-05-19T05:48:11.046Z,87.66
2023-05-19T05:50:37.913Z,88.08
2023-05-19T05:53:06.720Z,86.02
2023-05-19T05:55:33.896Z,86.93
2023-05-19T05:58:02.113Z,86.15
2023-05-19T06:00:29.801Z,85.95
2023-05-19T06:02:57.158Z,85.10
2023-05-19T06:05:25.077Z,85.00
2023-05-19T06:07:51.535Z,85.35
2023-05-19T06:10:17.966Z,85.01
2023-05-19T06:12:44.493Z,83.98
2023-05-19T06:15:11.140Z,83.50
2023-05-19T06:17:37.748Z,83.38
2023-05-19T06:20:06.005Z,81.87
2023-05-19T06:22:32.749Z,81.42
2023-05-19T06:24:59.381Z,80.75
2023-05-19T06:27:25.904Z,80.83
2023-05-19T06:29:52.833Z,79.74
2023-05-19T06:32:19.323Z,79.97
2023-05-19T06:34:46.164Z,80.50
2023-05-19T06:37:14.799Z,78.21
2023-05-19T06:39:41.266Z,77.53
2023-05-19T06:42:07.716Z,75.46
2023-05-19T06:44:34.192Z,76.70
2023-05-19T06:47:00.680Z,75.56
2023-05-19T06:49:29.326Z,75.11
2023-05-19T06:51:55.832Z,74.90
2023-05-19T06:54:22.396Z,76.34
2023-05-19T06:56:49.100Z,75.48
2023-05-19T06:59:16.179Z,74.32
2023-05-19T07:01:42.717Z,72.86
2023-05-19T07:04:09.240Z,73.50
2023-05-19T07:06:35.735Z,72.74
2023-05-19T07:09:04.352Z,72.16
2023-05-19T07:11:31.225Z,70.68
2023-05-19T07:13:57.694Z,69.23
2023-05-19T07:16:24.214Z,69.67
2023-05-19T07:18:50.951Z,69.78
2023-05-19T07:21:17.492Z,68.50
2023-05-19T07:23:43.980Z,70.75
2023-05-19T07:26:10.483Z,70.38
2023-05-19T07:28:39.851Z,69.73
2023-05-19T07:31:08.003Z,68.16
2023-05-19T07:33:34.453Z,66.82
2023-05-19T07:36:01.188Z,67.86
2023-05-19T07:38:28.789Z,66.19
2023-05-19T07:40:55.398Z,66.07
2023-05-19T07:43:21.920Z,66.24
2023-05-19T07:45:48.466Z,65.50
2023-05-19T07:48:15.077Z,63.84
2023-05-19T07:50:41.713Z,66.63
2023-05-19T07:53:08.246Z,66.44
2023-05-19T07:55:34.765Z,61.12
2023-05-19T07:58:01.261Z,62.67
2023-05-19T08:00:28.295Z,63.23
2023-05-19T08:02:56.927Z,61.61
2023-05-19T08:05:25.550Z,62.66
2023-05-19T08:07:52.075Z,61.32
2023-05-19T08:10:18.763Z,63.41
2023-05-19T08:12:45.712Z,63.34
2023-05-19T08:15:12.272Z,58.94
2023-05-19T08:17:39.017Z,58.50
2023-05-19T08:20:08.535Z,58.98
2023-05-19T08:22:35.109Z,56.97
2023-05-19T08:25:01.619Z,55.94
2023-05-19T08:27:28.130Z,55.68
2023-05-19T08:29:55.347Z,57.48
2023-05-19T08:32:21.922Z,53.90
2023-05-19T08:34:48.602Z,56.23
2023-05-19T08:37:15.206Z,54.68
2023-05-19T08:39:41.893Z,51.59
2023-05-19T08:42:09.890Z,52.40
2023-05-19T08:44:40.154Z,51.86
2023-05-19T08:47:12.699Z,53.65
2023-05-19T08:49:50.488Z,49.53
2023-05-19T08:52:35.804Z,50.80
2023-05-19T08:55:09.546Z,51.94
2023-05-19T08:57:36.813Z,51.13
2023-05-19T09:00:09.515Z,50.94
2023-05-19T09:02:46.565Z,47.56
2023-05-19T09:05:23.153Z,48.22
2023-05-19T09:07:49.712Z,46.62
2023-05-19T09:10:16.476Z,47.05
2023-05-19T09:12:48.800Z,50.50
2023-05-19T09:15:19.152Z,48.55
2023-05-19T09:17:48.803Z,48.51
2023-05-19T09:20:16.945Z,48.45
2023-05-19T09:22:47.575Z,46.63
2023-05-19T09:25:23.248Z,50.40
2023-05-19T09:27:50.550Z,47.06
2023-05-19T09:30:18.097Z,48.09
2023-05-19T09:32:45.654Z,45.00
2023-05-19T09:35:13.419Z,44.26
2023-05-19T09:37:41.166Z,43.75
2023-05-19T09:40:11.231Z,44.95
2023-05-19T09:42:40.570Z,44.51
2023-05-19T09:45:08.331Z,47.25
2023-05-19T09:47:37.410Z,49.13
2023-05-19T09:50:09.171Z,45.06
2023-05-19T09:52:37.125Z,45.83
2023-05-19T09:55:05.652Z,44.37
2023-05-19T09:57:40.064Z,47.08
2023-05-19T10:00:11.821Z,47.35
2023-05-19T10:02:42.761Z,46.35
2023-05-19T10:05:12.854Z,47.91
2023-05-19T10:07:40.786Z,47.56
2023-05-19T10:10:09.872Z,44.91
2023-05-19T10:12:39.177Z,45.48
2023-05-19T10:15:13.623Z,45.77
2023-05-19T10:17:41.631Z,46.77
2023-05-19T10:20:12.763Z,46.71
2023-05-19T10:22:39.956Z,46.60
2023-05-19T10:25:07.750Z,44.54
2023-05-19T10:27:37.469Z,44.59
2023-05-19T10:30:20.612Z,44.78
2023-05-19T10:32:51.937Z,47.14
2023-05-19T10:35:47.327Z,45.64
2023-05-19T10:38:44.738Z,44.61
2023-05-19T10:41:22.603Z,47.01
2023-05-19T10:43:49.028Z,44.61
2023-05-19T10:46:15.879Z,45.95
2023-05-19T10:48:46.566Z,44.71
2023-05-19T10:51:15.290Z,42.83
2023-05-19T10:53:46.291Z,42.18
2023-05-19T10:56:33.901Z,44.41
2023-05-19T10:59:01.504Z,43.83
2023-05-19T11:01:35.634Z,42.94
2023-05-19T11:04:07.231Z,43.02
2023-05-19T11:06:38.496Z,43.23
2023-05-19T11:09:16.621Z,43.48
2023-05-19T11:11:51.060Z,41.74
2023-05-19T11:14:27.448Z,39.72
2023-05-19T11:16:58.201Z,39.94
2023-05-19T11:19:32.585Z,38.43
2023-05-19T11:22:14.193Z,39.21
2023-05-19T11:24:50.211Z,39.60
2023-05-19T11:27:31.550Z,40.06
2023-05-19T11:30:06.186Z,38.54
2023-05-19T11:32:35.756Z,38.33
2023-05-19T11:35:02.763Z,39.56
2023-05-19T11:37:32.318Z,38.58
2023-05-19T11:40:01.966Z,40.50
2023-05-19T11:42:28.514Z,37.52
2023-05-19T11:44:56.134Z,40.24
2023-05-19T11:47:22.781Z,39.54
2023-05-19T11:49:57.858Z,39.62
2023-05-19T11:52:25.949Z,41.01
2023-05-19T11:54:52.524Z,38.46
2023-05-19T11:57:19.604Z,38.59
2023-05-19T11:59:48.074Z,38.29
2023-05-19T12:02:21.598Z,37.19
2023-05-19T12:04:51.760Z,37.02
2023-05-19T12:07:20.343Z,36.98
2023-05-19T12:09:47.469Z,37.34
2023-05-19T12:12:19.891Z,38.80
2023-05-19T12:14:47.593Z,39.87
2023-05-19T12:17:16.475Z,37.88
2023-05-19T12:19:44.496Z,37.44
2023-05-19T12:22:11.671Z,38.09
2023-05-19T12:24:39.004Z,37.32
2023-05-19T12:27:19.438Z,40.24
2023-05-19T12:29:57.115Z,37.84
2023-05-19T12:32:28.675Z,40.18
2023-05-19T12:34:58.683Z,36.54
2023-05-19T12:37:30.083Z,36.88
2023-05-19T12:39:57.593Z,38.06
2023-05-19T12:42:30.906Z,37.56
2023-05-19T12:45:00.686Z,39.53
2023-05-19T12:47:33.379Z,42.01
2023-05-19T12:49:59.809Z,40.36
2023-05-19T12:52:28.970Z,42.24
2023-05-19T12:55:07.205Z,40.23
2023-05-19T12:57:41.653Z,38.07
2023-05-19T13:00:10.575Z,38.95
2023-05-19T13:02:55.819Z,40.76
2023-05-19T13:05:23.073Z,40.60
2023-05-19T13:07:54.928Z,40.08
2023-05-19T13:10:21.481Z,40.32
2023-05-19T13:12:47.972Z,40.85
2023-05-19T13:15:14.956Z,41.13
2023-05-19T13:17:41.485Z,40.27
2023-05-19T13:20:08.932Z,41.54
2023-05-19T13:22:35.472Z,40.90
2023-05-19T13:25:02.285Z,40.23
2023-05-19T13:27:28.833Z,41.80
2023-05-19T13:29:55.420Z,42.10
2023-05-19T13:32:22.099Z,42.17
2023-05-19T13:34:48.955Z,41.32
2023-05-19T13:37:15.652Z,41.89
2023-05-19T13:39:42.238Z,41.33
2023-05-19T13:42:08.748Z,41.43
2023-05-19T13:44:35.287Z,39.89
2023-05-19T13:47:01.792Z,38.82
2023-05-19T13:49:28.245Z,39.76
2023-05-19T13:52:01.125Z,42.57
2023-05-19T13:54:27.684Z,41.39
2023-05-19T13:56:54.171Z,43.70
2023-05-19T13:59:23.539Z,42.96
2023-05-19T14:01:50.427Z,40.46
2023-05-19T14:04:18.197Z,40.82
2023-05-19T14:06:45.689Z,41.33
2023-05-19T14:09:13.164Z,42.79
2023-05-19T14:11:39.724Z,42.19
2023-05-19T14:14:06.473Z,42.42
2023-05-19T14:16:33.462Z,39.44
2023-05-19T14:19:00.090Z,41.34
2023-05-19T14:21:26.910Z,38.18
2023-05-19T14:23:53.387Z,40.65
2023-05-19T14:26:19.890Z,39.96
2023-05-19T14:28:46.367Z,40.93
2023-05-19T14:31:13.803Z,40.74
2023-05-19T14:33:41.417Z,39.20
2023-05-19T14:36:09.219Z,39.52
2023-05-19T14:38:36.231Z,39.29
2023-05-19T14:41:03.497Z,39.38
2023-05-19T14:43:29.961Z,40.37
2023-05-19T14:45:57.059Z,40.67
2023-05-19T14:48:23.551Z,40.67
2023-05-19T14:50:50.295Z,39.39
2023-05-19T14:53:16.897Z,38.48
2023-05-19T14:55:43.722Z,39.03
2023-05-19T14:58:19.726Z,39.62
2023-05-19T15:00:53.884Z,39.19
2023-05-19T15:03:20.538Z,40.71
2023-05-19T15:05:47.197Z,42.20
2023-05-19T15:08:13.726Z,41.17
2023-05-19T15:10:40.293Z,40.29
2023-05-19T15:13:06.938Z,38.65
2023-05-19T15:15:33.354Z,39.88
2023-05-19T15:17:59.884Z,40.26
2023-05-19T15:20:28.833Z,40.91
2023-05-19T15:22:56.049Z,38.89
2023-05-19T15:25:22.516Z,40.72
2023-05-19T15:27:48.994Z,39.21
2023-05-19T15:30:15.435Z,39.08
2023-05-19T15:32:41.910Z,38.92
2023-05-19T15:35:08.807Z,41.10
2023-05-19T15:37:35.349Z,39.16
2023-05-19T15:40:01.833Z,39.34
2023-05-19T15:42:28.399Z,41.31
2023-05-19T15:44:54.866Z,41.97
2023-05-19T15:47:21.306Z,40.67
2023-05-19T15:49:47.796Z,41.08
2023-05-19T15:52:14.382Z,41.91
2023-05-19T15:54:40.884Z,40.32
2023-05-19T15:57:07.480Z,39.96
2023-05-19T15:59:33.951Z,40.24
2023-05-19T16:02:00.491Z,40.85
2023-05-19T16:04:26.984Z,40.52
2023-05-19T16:06:53.494Z,39.29
2023-05-19T16:09:20.044Z,39.48
2023-05-19T16:11:46.507Z,40.89
2023-05-19T16:14:12.975Z,40.11
2023-05-19T16:16:39.566Z,41.36
2023-05-19T16:19:06.229Z,40.70
2023-05-19T16:21:32.809Z,40.71
2023-05-19T16:23:59.290Z,40.25
2023-05-19T16:26:26.414Z,41.86
2023-05-19T16:28:52.851Z,39.72
2023-05-19T16:31:19.857Z,40.48
2023-05-19T16:33:46.473Z,39.83
2023-05-19T16:36:12.910Z,41.14
2023-05-19T16:38:39.455Z,40.64
2023-05-19T16:41:06.931Z,40.30
2023-05-19T16:43:33.900Z,40.76
2023-05-19T16:46:03.374Z,41.60
2023-05-19T16:48:30.011Z,40.24
2023-05-19T16:50:56.599Z,40.75
2023-05-19T16:53:23.072Z,41.04
2023-05-19T16:55:49.630Z,41.66
2023-05-19T16:58:16.059Z,42.35
2023-05-19T17:00:42.608Z,42.36
2023-05-19T17:03:09.155Z,41.28
2023-05-19T17:05:37.068Z,40.84
2023-05-19T17:08:03.719Z,41.62
2023-05-19T17:10:30.247Z,41.16
2023-05-19T17:12:56.682Z,41.18
2023-05-19T17:15:23.149Z,40.41
2023-05-19T17:17:49.880Z,40.48
2023-05-19T17:20:16.776Z,41.30
2023-05-19T17:22:43.280Z,41.98
2023-05-19T17:25:10.083Z,41.14
2023-05-19T17:27:36.700Z,41.84
2023-05-19T17:30:03.556Z,41.62
2023-05-19T17:32:35.749Z,42.24
2023-05-19T17:35:03.358Z,42.45
2023-05-19T17:37:29.887Z,40.95
2023-05-19T17:39:56.390Z,41.69
2023-05-19T17:42:22.879Z,43.09
2023-05-19T17:44:49.450Z,42.99
2023-05-19T17:47:15.941Z,41.73
2023-05-19T17:49:42.384Z,41.94
2023-05-19T17:52:09.534Z,42.11
2023-05-19T17:54:36.358Z,42.51
2023-05-19T17:57:07.161Z,41.34
2023-05-19T17:59:34.012Z,41.63
2023-05-19T18:02:00.848Z,43.60
2023-05-19T18:04:27.675Z,41.96
2023-05-19T18:06:56.451Z,42.94
2023-05-19T18:09:28.505Z,43.25
2023-05-19T18:11:55.509Z,44.00
2023-05-19T18:14:22.055Z,43.91
2023-05-19T18:16:49.983Z,43.61
2023-05-19T18:19:16.647Z,44.01
2023-05-19T18:21:43.163Z,44.20
2023-05-19T18:24:09.671Z,44.87
2023-05-19T18:26:38.162Z,44.00
2023-05-19T18:29:04.973Z,44.67
2023-05-19T18:31:31.689Z,44.36
2023-05-19T18:33:58.207Z,43.96
2023-05-19T18:36:24.711Z,43.35
2023-05-19T18:38:51.241Z,44.64
2023-05-19T18:41:17.794Z,43.78
2023-05-19T18:43:44.297Z,45.23
2023-05-19T18:46:11.207Z,44.36
2023-05-19T18:48:37.700Z,44.92
2023-05-19T18:51:04.846Z,44.73
2023-05-19T18:53:34.636Z,44.96
2023-05-19T18:56:01.384Z,46.03
2023-05-19T18:58:27.864Z,44.59
2023-05-19T19:00:55.317Z,45.72
2023-05-19T19:03:21.778Z,45.30
2023-05-19T19:05:56.067Z,45.86
2023-05-19T19:08:22.896Z,46.19
2023-05-19T19:10:54.676Z,45.87
2023-05-19T19:13:22.452Z,46.97
2023-05-19T19:15:48.887Z,46.39
2023-05-19T19:18:15.684Z,46.94
2023-05-19T19:20:42.170Z,47.39
2023-05-19T19:23:08.597Z,46.30
2023-05-19T19:25:35.378Z,47.66
2023-05-19T19:28:02.343Z,46.50
2023-05-19T19:30:29.394Z,48.01
2023-05-19T19:32:56.999Z,47.43
2023-05-19T19:35:23.563Z,48.20
2023-05-19T19:37:51.692Z,47.44
2023-05-19T19:40:18.189Z,49.64
2023-05-19T19:42:44.685Z,48.86
2023-05-19T19:45:13.968Z,49.86
2023-05-19T19:47:42.013Z,49.32
2023-05-19T19:50:09.203Z,50.27
2023-05-19T19:52:35.681Z,51.53
2023-05-19T19:55:02.196Z,49.15
2023-05-19T19:57:30.039Z,48.70
2023-05-19T19:59:59.049Z,49.81
2023-05-19T20:02:25.907Z,50.48
2023-05-19T20:04:52.467Z,50.09
2023-05-19T20:07:20.718Z,50.70
2023-05-19T20:09:48.252Z,50.21
2023-05-19T20:12:14.746Z,51.21
2023-05-19T20:14:41.284Z,51.20
2023-05-19T20:17:07.745Z,51.54
2023-05-19T20:19:34.294Z,51.68
2023-05-19T20:22:00.912Z,51.12
2023-05-19T20:24:27.339Z,52.18
2023-05-19T20:26:53.752Z,51.86
2023-05-19T20:29:21.216Z,52.76
2023-05-19T20:31:47.709Z,55.36
2023-05-19T20:34:14.214Z,57.54
2023-05-19T20:36:40.980Z,58.01
2023-05-19T20:39:09.635Z,60.48
2023-05-19T20:41:36.277Z,61.78
2023-05-19T20:44:02.980Z,61.45
2023-05-19T20:46:29.516Z,63.45
2023-05-19T20:48:56.237Z,64.31
2023-05-19T20:51:25.096Z,63.96
2023-05-19T20:53:51.670Z,65.34
2023-05-19T20:56:19.704Z,66.10
2023-05-19T20:58:46.250Z,66.38
2023-05-19T21:01:12.775Z,66.81
2023-05-19T21:03:39.332Z,66.77
2023-05-19T21:06:05.816Z,66.84
2023-05-19T21:08:32.233Z,67.19
2023-05-19T21:10:59.306Z,67.70
2023-05-19T21:13:25.888Z,68.55
2023-05-19T21:15:52.394Z,68.55
2023-05-19T21:18:18.833Z,68.19
2023-05-19T21:20:45.338Z,67.88
2023-05-19T21:23:12.209Z,68.69
2023-05-19T21:25:39.652Z,68.42
2023-05-19T21:28:06.347Z,68.35
2023-05-19T21:30:33.029Z,68.71
2023-05-19T21:32:59.731Z,68.85
2023-05-19T21:35:26.271Z,68.98
2023-05-19T21:37:52.761Z,68.82
2023-05-19T21:40:19.283Z,68.74
2023-05-19T21:42:46.078Z,68.85
2023-05-19T21:45:12.839Z,68.66
2023-05-19T21:47:39.506Z,68.90
2023-05-19T21:50:06.751Z,68.23
2023-05-19T21:52:33.287Z,68.97
2023-05-19T21:54:59.791Z,68.10
2023-05-19T21:57:26.292Z,67.61
2023-05-19T21:59:52.743Z,69.13
2023-05-19T22:02:19.274Z,68.18
2023-05-19T22:04:45.951Z,68.58
2023-05-19T22:07:12.620Z,68.02
2023-05-19T22:09:39.188Z,67.65
2023-05-19T22:12:06.399Z,67.61
2023-05-19T22:14:32.889Z,67.42
2023-05-19T22:16:59.422Z,67.93
2023-05-19T22:19:26.232Z,67.52
2023-05-19T22:22:01.815Z,67.71
2023-05-19T22:24:36.627Z,66.67
2023-05-19T22:27:03.803Z,67.05
2023-05-19T22:29:30.284Z,67.12
2023-05-19T22:31:56.733Z,67.82
2023-05-19T22:34:23.256Z,67.17
2023-05-19T22:36:50.046Z,66.84
2023-05-19T22:39:16.502Z,66.74
2023-05-19T22:41:43.092Z,67.13
2023-05-19T22:44:11.334Z,67.45
2023-05-19T22:46:37.939Z,67.43
2023-05-19T22:49:04.410Z,66.78
2023-05-19T22:51:31.372Z,67.12
2023-05-19T22:53:57.816Z,68.01
2023-05-19T22:56:24.460Z,67.49
2023-05-19T22:58:51.036Z,68.63
2023-05-19T23:01:17.546Z,68.85
2023-05-19T23:03:44.621Z,68.32
2023-05-19T23:06:11.243Z,69.59
2023-05-19T23:08:37.888Z,68.86
2023-05-19T23:11:04.495Z,69.71
2023-05-19T23:13:33.769Z,69.28
2023-05-19T23:16:00.680Z,69.84
2023-05-19T23:18:27.144Z,68.97
2023-05-19T23:20:53.598Z,69.28
2023-05-19T23:23:20.046Z,70.24
2023-05-19T23:25:46.519Z,70.14
2023-05-19T23:28:13.010Z,70.30
2023-05-19T23:30:39.623Z,70.16
2023-05-19T23:33:06.253Z,69.39
2023-05-19T23:35:32.870Z,70.05
2023-05-19T23:37:59.434Z,70.71
2023-05-19T23:40:26.456Z,70.54
2023-05-19T23:42:52.936Z,70.51
2023-05-19T23:45:19.440Z,71.72
2023-05-19T23:47:45.989Z,70.56
2023-05-19T23:50:12.476Z,71.79
2023-05-19T23:52:39.016Z,70.92
2023-05-19T23:55:05.980Z,70.66
2023-05-19T23:57:32.419Z,71.34
2023-05-19T23:59:58.876Z,71.52
